sensor_id;sensor_type;location;lat;lon;timestamp;temperature;humidity
57709;SHT35;42558;52.388;13.390;2023-06-14T00:01:11;13.58;70.42
57709;SHT35;42558;52.388;13.390;2023-06-14T00:03:42;13.53;70.51
57709;SHT35;42558;52.388;13.390;2023-06-14T00:06:13;13.47;70.91
57709;SHT35;42558;52.388;13.390;2023-06-14T00:08:43;13.37;71.59
57709;SHT35;42558;52.388;13.390;2023-06-14T00:11:13;13.35;71.56
57709;SHT35;42558;52.388;13.390;2023-06-14T00:13:43;13.33;71.74
57709;SHT35;42558;52.388;13.390;2023-06-14T00:16:13;13.30;71.56
57709;SHT35;42558;52.388;13.390;2023-06-14T00:18:43;13.26;71.48
57709;SHT35;42558;52.388;13.390;2023-06-14T00:21:13;13.22;71.57
57709;SHT35;42558;52.388;13.390;2023-06-14T00:23:43;13.15;71.64
57709;SHT35;42558;52.388;13.390;2023-06-14T00:26:14;13.10;71.98
57709;SHT35;42558;52.388;13.390;2023-06-14T00:28:44;13.06;72.13
57709;SHT35;42558;52.388;13.390;2023-06-14T00:31:13;13.03;72.13
57709;SHT35;42558;52.388;13.390;2023-06-14T00:33:43;12.98;72.78
57709;SHT35;42558;52.388;13.390;2023-06-14T00:36:13;12.96;73.06
57709;SHT35;42558;52.388;13.390;2023-06-14T00:38:43;12.97;73.01
57709;SHT35;42558;52.388;13.390;2023-06-14T00:41:13;12.98;73.20
57709;SHT35;42558;52.388;13.390;2023-06-14T00:43:43;13.00;73.33
57709;SHT35;42558;52.388;13.390;2023-06-14T00:46:13;12.98;73.46
57709;SHT35;42558;52.388;13.390;2023-06-14T00:48:43;12.99;73.35
57709;SHT35;42558;52.388;13.390;2023-06-14T00:51:13;12.96;73.48
57709;SHT35;42558;52.388;13.390;2023-06-14T00:53:44;12.93;73.73
57709;SHT35;42558;52.388;13.390;2023-06-14T00:56:16;12.92;73.73
57709;SHT35;42558;52.388;13.390;2023-06-14T00:58:49;12.88;74.02
57709;SHT35;42558;52.388;13.390;2023-06-14T01:01:20;12.85;74.46
57709;SHT35;42558;52.388;13.390;2023-06-14T01:03:50;12.85;74.45
57709;SHT35;42558;52.388;13.390;2023-06-14T01:06:29;12.82;74.73
57709;SHT35;42558;52.388;13.390;2023-06-14T01:12:16;12.79;74.94
57709;SHT35;42558;52.388;13.390;2023-06-14T01:14:58;12.76;75.21
57709;SHT35;42558;52.388;13.390;2023-06-14T01:17:30;12.74;75.26
57709;SHT35;42558;52.388;13.390;2023-06-14T01:20:02;12.74;75.59
57709;SHT35;42558;52.388;13.390;2023-06-14T01:22:36;12.73;75.50
57709;SHT35;42558;52.388;13.390;2023-06-14T01:25:07;12.69;75.28
57709;SHT35;42558;52.388;13.390;2023-06-14T01:27:35;12.63;75.74
57709;SHT35;42558;52.388;13.390;2023-06-14T01:30:04;12.60;76.01
57709;SHT35;42558;52.388;13.390;2023-06-14T01:32:38;12.58;76.14
57709;SHT35;42558;52.388;13.390;2023-06-14T01:35:08;12.57;76.30
57709;SHT35;42558;52.388;13.390;2023-06-14T01:37:38;12.57;76.71
57709;SHT35;42558;52.388;13.390;2023-06-14T01:40:11;12.55;76.63
57709;SHT35;42558;52.388;13.390;2023-06-14T01:42:44;12.55;77.14
57709;SHT35;42558;52.388;13.390;2023-06-14T01:45:18;12.55;77.03
57709;SHT35;42558;52.388;13.390;2023-06-14T01:47:50;12.49;77.03
57709;SHT35;42558;52.388;13.390;2023-06-14T01:50:21;12.47;77.70
57709;SHT35;42558;52.388;13.390;2023-06-14T01:52:51;12.43;77.41
57709;SHT35;42558;52.388;13.390;2023-06-14T01:55:20;12.39;77.53
57709;SHT35;42558;52.388;13.390;2023-06-14T01:57:51;12.39;77.55
57709;SHT35;42558;52.388;13.390;2023-06-14T02:00:23;12.37;77.58
57709;SHT35;42558;52.388;13.390;2023-06-14T02:02:53;12.35;77.60
57709;SHT35;42558;52.388;13.390;2023-06-14T02:05:23;12.31;77.39
57709;SHT35;42558;52.388;13.390;2023-06-14T02:07:53;12.27;77.33
57709;SHT35;42558;52.388;13.390;2023-06-14T02:10:23;12.24;77.45
57709;SHT35;42558;52.388;13.390;2023-06-14T02:12:53;12.21;77.78
57709;SHT35;42558;52.388;13.390;2023-06-14T02:15:23;12.18;78.07
57709;SHT35;42558;52.388;13.390;2023-06-14T02:17:53;12.12;78.22
57709;SHT35;42558;52.388;13.390;2023-06-14T02:20:23;12.10;78.53
57709;SHT35;42558;52.388;13.390;2023-06-14T02:22:53;12.06;78.95
57709;SHT35;42558;52.388;13.390;2023-06-14T02:25:24;12.04;79.01
57709;SHT35;42558;52.388;13.390;2023-06-14T02:27:54;12.03;79.12
57709;SHT35;42558;52.388;13.390;2023-06-14T02:30:25;12.02;79.43
57709;SHT35;42558;52.388;13.390;2023-06-14T02:32:55;12.01;79.40
57709;SHT35;42558;52.388;13.390;2023-06-14T02:35:26;11.98;79.48
57709;SHT35;42558;52.388;13.390;2023-06-14T02:37:57;11.96;79.77
57709;SHT35;42558;52.388;13.390;2023-06-14T02:40:27;11.95;79.63
57709;SHT35;42558;52.388;13.390;2023-06-14T02:42:57;11.95;79.91
57709;SHT35;42558;52.388;13.390;2023-06-14T02:45:27;11.94;80.01
57709;SHT35;42558;52.388;13.390;2023-06-14T02:47:58;11.91;80.04
57709;SHT35;42558;52.388;13.390;2023-06-14T02:50:28;11.89;80.04
57709;SHT35;42558;52.388;13.390;2023-06-14T02:52:59;11.89;80.22
57709;SHT35;42558;52.388;13.390;2023-06-14T02:55:30;11.90;80.59
57709;SHT35;42558;52.388;13.390;2023-06-14T02:58:00;11.90;80.55
57709;SHT35;42558;52.388;13.390;2023-06-14T03:00:30;11.90;80.55
57709;SHT35;42558;52.388;13.390;2023-06-14T03:03:00;11.87;80.77
57709;SHT35;42558;52.388;13.390;2023-06-14T03:05:31;11.87;80.91
57709;SHT35;42558;52.388;13.390;2023-06-14T03:08:02;11.89;81.03
57709;SHT35;42558;52.388;13.390;2023-06-14T03:10:32;11.89;80.94
57709;SHT35;42558;52.388;13.390;2023-06-14T03:13:02;11.90;80.96
57709;SHT35;42558;52.388;13.390;2023-06-14T03:15:32;11.90;80.88
57709;SHT35;42558;52.388;13.390;2023-06-14T03:18:01;11.90;81.06
57709;SHT35;42558;52.388;13.390;2023-06-14T03:20:30;11.89;80.86
57709;SHT35;42558;52.388;13.390;2023-06-14T03:23:04;11.88;81.13
57709;SHT35;42558;52.388;13.390;2023-06-14T03:25:35;11.86;81.32
57709;SHT35;42558;52.388;13.390;2023-06-14T03:28:07;11.88;81.30
57709;SHT35;42558;52.388;13.390;2023-06-14T03:30:37;11.90;81.39
57709;SHT35;42558;52.388;13.390;2023-06-14T03:33:07;11.92;81.40
57709;SHT35;42558;52.388;13.390;2023-06-14T03:35:38;11.94;81.42
57709;SHT35;42558;52.388;13.390;2023-06-14T03:38:08;11.96;81.42
57709;SHT35;42558;52.388;13.390;2023-06-14T03:40:38;12.01;81.58
57709;SHT35;42558;52.388;13.390;2023-06-14T03:43:08;12.05;81.44
57709;SHT35;42558;52.388;13.390;2023-06-14T03:45:38;12.06;81.15
57709;SHT35;42558;52.388;13.390;2023-06-14T03:48:08;12.10;81.18
57709;SHT35;42558;52.388;13.390;2023-06-14T03:50:39;12.12;81.00
57709;SHT35;42558;52.388;13.390;2023-06-14T03:53:09;12.15;81.09
57709;SHT35;42558;52.388;13.390;2023-06-14T03:55:39;12.19;81.43
57709;SHT35;42558;52.388;13.390;2023-06-14T03:58:14;12.21;81.29
57709;SHT35;42558;52.388;13.390;2023-06-14T04:00:45;12.24;81.12
57709;SHT35;42558;52.388;13.390;2023-06-14T04:03:15;12.26;81.03
57709;SHT35;42558;52.388;13.390;2023-06-14T04:05:46;12.28;81.03
57709;SHT35;42558;52.388;13.390;2023-06-14T04:08:17;12.28;80.91
57709;SHT35;42558;52.388;13.390;2023-06-14T04:10:48;12.31;80.95
57709;SHT35;42558;52.388;13.390;2023-06-14T04:13:17;12.32;80.87
57709;SHT35;42558;52.388;13.390;2023-06-14T04:15:45;12.38;80.82
57709;SHT35;42558;52.388;13.390;2023-06-14T04:18:14;12.46;80.77
57709;SHT35;42558;52.388;13.390;2023-06-14T04:20:42;12.53;80.64
57709;SHT35;42558;52.388;13.390;2023-06-14T04:23:11;12.65;80.40
57709;SHT35;42558;52.388;13.390;2023-06-14T04:25:43;12.81;80.19
57709;SHT35;42558;52.388;13.390;2023-06-14T04:28:19;12.94;79.61
57709;SHT35;42558;52.388;13.390;2023-06-14T04:30:49;13.07;79.60
57709;SHT35;42558;52.388;13.390;2023-06-14T04:33:19;13.19;78.85
57709;SHT35;42558;52.388;13.390;2023-06-14T04:35:49;13.28;78.35
57709;SHT35;42558;52.388;13.390;2023-06-14T04:38:23;13.39;78.16
57709;SHT35;42558;52.388;13.390;2023-06-14T04:40:54;13.51;77.87
57709;SHT35;42558;52.388;13.390;2023-06-14T04:43:26;13.58;77.53
57709;SHT35;42558;52.388;13.390;2023-06-14T04:45:57;13.60;77.25
57709;SHT35;42558;52.388;13.390;2023-06-14T04:48:27;13.63;77.37
57709;SHT35;42558;52.388;13.390;2023-06-14T04:50:57;13.71;77.28
57709;SHT35;42558;52.388;13.390;2023-06-14T04:53:27;13.88;76.95
57709;SHT35;42558;52.388;13.390;2023-06-14T04:55:58;14.08;76.21
57709;SHT35;42558;52.388;13.390;2023-06-14T04:58:30;14.29;75.68
57709;SHT35;42558;52.388;13.390;2023-06-14T05:01:01;14.48;75.38
57709;SHT35;42558;52.388;13.390;2023-06-14T05:03:32;14.55;74.62
57709;SHT35;42558;52.388;13.390;2023-06-14T05:06:04;14.54;74.14
57709;SHT35;42558;52.388;13.390;2023-06-14T05:08:34;14.67;73.90
57709;SHT35;42558;52.388;13.390;2023-06-14T05:11:04;14.87;73.58
57709;SHT35;42558;52.388;13.390;2023-06-14T05:13:34;15.07;72.74
57709;SHT35;42558;52.388;13.390;2023-06-14T05:16:04;15.11;71.85
57709;SHT35;42558;52.388;13.390;2023-06-14T05:18:34;15.00;72.00
57709;SHT35;42558;52.388;13.390;2023-06-14T05:21:04;14.83;71.90
57709;SHT35;42558;52.388;13.390;2023-06-14T05:23:34;14.84;72.41
57709;SHT35;42558;52.388;13.390;2023-06-14T05:26:05;14.89;72.10
57709;SHT35;42558;52.388;13.390;2023-06-14T05:28:36;14.96;72.05
57709;SHT35;42558;52.388;13.390;2023-06-14T05:31:06;15.06;72.02
57709;SHT35;42558;52.388;13.390;2023-06-14T05:33:36;15.22;71.75
57709;SHT35;42558;52.388;13.390;2023-06-14T05:36:06;15.21;70.80
57709;SHT35;42558;52.388;13.390;2023-06-14T05:38:37;15.16;71.15
57709;SHT35;42558;52.388;13.390;2023-06-14T05:41:07;15.30;71.24
57709;SHT35;42558;52.388;13.390;2023-06-14T05:43:37;15.49;70.86
57709;SHT35;42558;52.388;13.390;2023-06-14T05:46:07;15.57;70.42
57709;SHT35;42558;52.388;13.390;2023-06-14T05:48:37;15.69;70.10
57709;SHT35;42558;52.388;13.390;2023-06-14T05:51:07;15.74;69.62
57709;SHT35;42558;52.388;13.390;2023-06-14T05:53:38;15.64;69.11
57709;SHT35;42558;52.388;13.390;2023-06-14T05:56:08;15.59;69.62
57709;SHT35;42558;52.388;13.390;2023-06-14T05:58:38;15.63;69.63
57709;SHT35;42558;52.388;13.390;2023-06-14T06:01:09;15.64;69.41
57709;SHT35;42558;52.388;13.390;2023-06-14T06:03:39;15.77;69.65
57709;SHT35;42558;52.388;13.390;2023-06-14T06:06:09;15.74;69.05
57709;SHT35;42558;52.388;13.390;2023-06-14T06:08:39;15.58;69.37
57709;SHT35;42558;52.388;13.390;2023-06-14T06:11:10;15.55;69.62
57709;SHT35;42558;52.388;13.390;2023-06-14T06:13:40;15.60;69.85
57709;SHT35;42558;52.388;13.390;2023-06-14T06:16:10;15.64;69.39
57709;SHT35;42558;52.388;13.390;2023-06-14T06:18:40;15.61;69.42
57709;SHT35;42558;52.388;13.390;2023-06-14T06:21:13;15.53;69.63
57709;SHT35;42558;52.388;13.390;2023-06-14T06:23:43;15.62;69.91
57709;SHT35;42558;52.388;13.390;2023-06-14T06:26:12;15.71;69.74
57709;SHT35;42558;52.388;13.390;2023-06-14T06:28:43;15.59;69.56
57709;SHT35;42558;52.388;13.390;2023-06-14T06:31:11;15.54;70.13
57709;SHT35;42558;52.388;13.390;2023-06-14T06:33:41;15.56;70.03
57709;SHT35;42558;52.388;13.390;2023-06-14T06:36:11;15.59;69.74
57709;SHT35;42558;52.388;13.390;2023-06-14T06:38:40;15.69;69.82
57709;SHT35;42558;52.388;13.390;2023-06-14T06:41:08;15.73;69.31
57709;SHT35;42558;52.388;13.390;2023-06-14T06:43:36;15.72;69.42
57709;SHT35;42558;52.388;13.390;2023-06-14T06:46:05;15.73;69.69
57709;SHT35;42558;52.388;13.390;2023-06-14T06:48:33;15.79;69.65
57709;SHT35;42558;52.388;13.390;2023-06-14T06:51:03;15.76;69.22
57709;SHT35;42558;52.388;13.390;2023-06-14T06:53:32;15.76;69.40
57709;SHT35;42558;52.388;13.390;2023-06-14T06:56:12;15.83;69.25
57709;SHT35;42558;52.388;13.390;2023-06-14T06:58:42;15.91;69.25
57709;SHT35;42558;52.388;13.390;2023-06-14T07:01:12;16.02;69.23
57709;SHT35;42558;52.388;13.390;2023-06-14T07:03:43;16.23;68.63
57709;SHT35;42558;52.388;13.390;2023-06-14T07:06:13;16.35;68.22
57709;SHT35;42558;52.388;13.390;2023-06-14T07:08:43;16.53;67.59
57709;SHT35;42558;52.388;13.390;2023-06-14T07:11:14;16.72;66.57
57709;SHT35;42558;52.388;13.390;2023-06-14T07:13:44;16.75;66.64
57709;SHT35;42558;52.388;13.390;2023-06-14T07:16:14;16.87;66.85
57709;SHT35;42558;52.388;13.390;2023-06-14T07:18:45;17.12;65.48
57709;SHT35;42558;52.388;13.390;2023-06-14T07:21:15;17.23;65.11
57709;SHT35;42558;52.388;13.390;2023-06-14T07:23:43;17.48;64.16
57709;SHT35;42558;52.388;13.390;2023-06-14T07:26:12;17.86;63.34
57709;SHT35;42558;52.388;13.390;2023-06-14T07:28:41;18.65;61.63
57709;SHT35;42558;52.388;13.390;2023-06-14T07:31:15;19.13;59.28
57709;SHT35;42558;52.388;13.390;2023-06-14T07:33:45;19.41;59.04
57709;SHT35;42558;52.388;13.390;2023-06-14T07:36:15;18.60;59.23
57709;SHT35;42558;52.388;13.390;2023-06-14T07:38:47;18.32;61.24
57709;SHT35;42558;52.388;13.390;2023-06-14T07:41:16;18.41;61.47
57709;SHT35;42558;52.388;13.390;2023-06-14T07:43:46;18.55;61.69
57709;SHT35;42558;52.388;13.390;2023-06-14T07:46:16;18.52;60.38
57709;SHT35;42558;52.388;13.390;2023-06-14T07:48:46;18.41;60.79
57709;SHT35;42558;52.388;13.390;2023-06-14T07:51:16;18.37;60.67
57709;SHT35;42558;52.388;13.390;2023-06-14T07:53:47;18.39;61.03
57709;SHT35;42558;52.388;13.390;2023-06-14T07:56:18;18.46;61.12
57709;SHT35;42558;52.388;13.390;2023-06-14T07:58:48;18.30;60.89
57709;SHT35;42558;52.388;13.390;2023-06-14T08:01:18;18.16;61.21
57709;SHT35;42558;52.388;13.390;2023-06-14T08:03:49;18.14;62.02
57709;SHT35;42558;52.388;13.390;2023-06-14T08:06:19;18.35;61.60
57709;SHT35;42558;52.388;13.390;2023-06-14T08:08:49;18.45;60.81
57709;SHT35;42558;52.388;13.390;2023-06-14T08:11:19;18.06;61.28
57709;SHT35;42558;52.388;13.390;2023-06-14T08:13:50;18.05;62.36
57709;SHT35;42558;52.388;13.390;2023-06-14T08:16:20;18.19;61.35
57709;SHT35;42558;52.388;13.390;2023-06-14T08:18:50;18.17;61.21
57709;SHT35;42558;52.388;13.390;2023-06-14T08:21:20;18.35;60.97
57709;SHT35;42558;52.388;13.390;2023-06-14T08:23:49;18.46;60.49
57709;SHT35;42558;52.388;13.390;2023-06-14T08:26:22;18.31;60.58
57709;SHT35;42558;52.388;13.390;2023-06-14T08:28:52;18.18;61.35
57709;SHT35;42558;52.388;13.390;2023-06-14T08:31:24;18.16;60.60
57709;SHT35;42558;52.388;13.390;2023-06-14T08:33:55;18.22;61.17
57709;SHT35;42558;52.388;13.390;2023-06-14T08:36:25;18.28;60.46
57709;SHT35;42558;52.388;13.390;2023-06-14T08:38:55;18.33;60.67
57709;SHT35;42558;52.388;13.390;2023-06-14T08:41:25;18.42;60.39
57709;SHT35;42558;52.388;13.390;2023-06-14T08:43:56;18.66;60.48
57709;SHT35;42558;52.388;13.390;2023-06-14T08:46:26;18.86;59.62
57709;SHT35;42558;52.388;13.390;2023-06-14T08:48:57;18.81;58.83
57709;SHT35;42558;52.388;13.390;2023-06-14T08:51:28;18.76;58.96
57709;SHT35;42558;52.388;13.390;2023-06-14T08:54:06;18.67;59.55
57709;SHT35;42558;52.388;13.390;2023-06-14T08:56:36;18.80;58.88
57709;SHT35;42558;52.388;13.390;2023-06-14T08:59:08;19.20;58.26
57709;SHT35;42558;52.388;13.390;2023-06-14T09:01:38;19.27;58.04
57709;SHT35;42558;52.388;13.390;2023-06-14T09:04:21;19.44;57.35
57709;SHT35;42558;52.388;13.390;2023-06-14T09:06:51;19.65;57.55
57709;SHT35;42558;52.388;13.390;2023-06-14T09:09:22;19.78;56.37
57709;SHT35;42558;52.388;13.390;2023-06-14T09:11:52;19.52;56.29
57709;SHT35;42558;52.388;13.390;2023-06-14T09:14:23;19.69;56.71
57709;SHT35;42558;52.388;13.390;2023-06-14T09:16:54;19.79;55.87
57709;SHT35;42558;52.388;13.390;2023-06-14T09:19:24;19.57;56.23
57709;SHT35;42558;52.388;13.390;2023-06-14T09:21:54;19.65;56.25
57709;SHT35;42558;52.388;13.390;2023-06-14T09:24:25;19.65;55.97
57709;SHT35;42558;52.388;13.390;2023-06-14T09:26:56;19.67;55.18
57709;SHT35;42558;52.388;13.390;2023-06-14T09:29:26;19.83;54.97
57709;SHT35;42558;52.388;13.390;2023-06-14T09:31:57;19.79;54.54
57709;SHT35;42558;52.388;13.390;2023-06-14T09:34:28;20.01;54.60
57709;SHT35;42558;52.388;13.390;2023-06-14T09:36:57;20.06;53.79
57709;SHT35;42558;52.388;13.390;2023-06-14T09:39:27;20.09;54.40
57709;SHT35;42558;52.388;13.390;2023-06-14T09:41:57;20.39;54.23
57709;SHT35;42558;52.388;13.390;2023-06-14T09:44:26;20.58;52.84
57709;SHT35;42558;52.388;13.390;2023-06-14T09:46:59;20.18;53.39
57709;SHT35;42558;52.388;13.390;2023-06-14T09:49:29;20.17;53.97
57709;SHT35;42558;52.388;13.390;2023-06-14T09:52:02;20.12;53.42
57709;SHT35;42558;52.388;13.390;2023-06-14T09:54:31;19.88;54.40
57709;SHT35;42558;52.388;13.390;2023-06-14T09:57:12;20.04;54.66
57709;SHT35;42558;52.388;13.390;2023-06-14T09:59:45;20.33;55.07
57709;SHT35;42558;52.388;13.390;2023-06-14T10:02:21;20.59;54.22
57709;SHT35;42558;52.388;13.390;2023-06-14T10:04:58;20.72;53.33
57709;SHT35;42558;52.388;13.390;2023-06-14T10:10:16;20.51;53.40
57709;SHT35;42558;52.388;13.390;2023-06-14T10:12:47;20.67;52.80
57709;SHT35;42558;52.388;13.390;2023-06-14T10:15:25;20.88;52.77
57709;SHT35;42558;52.388;13.390;2023-06-14T10:24:33;20.88;51.55
57709;SHT35;42558;52.388;13.390;2023-06-14T10:27:14;21.02;51.87
57709;SHT35;42558;52.388;13.390;2023-06-14T10:32:23;21.24;53.10
57709;SHT35;42558;52.388;13.390;2023-06-14T10:34:56;21.21;54.67
57709;SHT35;42558;52.388;13.390;2023-06-14T10:37:29;21.33;54.55
57709;SHT35;42558;52.388;13.390;2023-06-14T10:39:59;21.47;54.51
57709;SHT35;42558;52.388;13.390;2023-06-14T10:42:32;21.30;54.13
57709;SHT35;42558;52.388;13.390;2023-06-14T10:45:02;21.35;55.67
57709;SHT35;42558;52.388;13.390;2023-06-14T10:50:10;21.02;53.74
57709;SHT35;42558;52.388;13.390;2023-06-14T10:52:44;20.94;54.26
57709;SHT35;42558;52.388;13.390;2023-06-14T10:55:18;20.90;54.80
57709;SHT35;42558;52.388;13.390;2023-06-14T10:57:53;20.86;55.22
57709;SHT35;42558;52.388;13.390;2023-06-14T11:00:28;20.72;55.01
57709;SHT35;42558;52.388;13.390;2023-06-14T11:03:31;20.40;55.94
57709;SHT35;42558;52.388;13.390;2023-06-14T11:06:24;20.43;55.94
57709;SHT35;42558;52.388;13.390;2023-06-14T11:12:23;20.98;56.47
57709;SHT35;42558;52.388;13.390;2023-06-14T11:14:57;21.52;53.98
57709;SHT35;42558;52.388;13.390;2023-06-14T11:17:28;21.49;53.58
57709;SHT35;42558;52.388;13.390;2023-06-14T11:20:09;21.39;53.90
57709;SHT35;42558;52.388;13.390;2023-06-14T11:22:43;21.32;53.75
57709;SHT35;42558;52.388;13.390;2023-06-14T11:25:14;21.49;54.93
57709;SHT35;42558;52.388;13.390;2023-06-14T11:27:45;21.55;54.25
57709;SHT35;42558;52.388;13.390;2023-06-14T11:30:15;21.60;53.47
57709;SHT35;42558;52.388;13.390;2023-06-14T11:32:46;21.67;53.23
57709;SHT35;42558;52.388;13.390;2023-06-14T11:35:18;21.58;53.56
57709;SHT35;42558;52.388;13.390;2023-06-14T11:37:53;21.82;53.76
57709;SHT35;42558;52.388;13.390;2023-06-14T11:40:27;21.99;52.84
57709;SHT35;42558;52.388;13.390;2023-06-14T11:43:01;21.87;52.20
57709;SHT35;42558;52.388;13.390;2023-06-14T11:45:31;21.57;52.95
57709;SHT35;42558;52.388;13.390;2023-06-14T11:47:59;21.53;53.64
57709;SHT35;42558;52.388;13.390;2023-06-14T11:50:30;21.57;53.24
57709;SHT35;42558;52.388;13.390;2023-06-14T11:53:00;21.59;54.11
57709;SHT35;42558;52.388;13.390;2023-06-14T11:55:39;21.73;53.62
57709;SHT35;42558;52.388;13.390;2023-06-14T11:58:10;21.86;52.66
57709;SHT35;42558;52.388;13.390;2023-06-14T12:00:38;21.93;52.51
57709;SHT35;42558;52.388;13.390;2023-06-14T12:03:07;22.14;52.71
57709;SHT35;42558;52.388;13.390;2023-06-14T12:05:35;22.24;51.85
57709;SHT35;42558;52.388;13.390;2023-06-14T12:08:04;22.44;51.43
57709;SHT35;42558;52.388;13.390;2023-06-14T12:10:40;22.47;50.74
57709;SHT35;42558;52.388;13.390;2023-06-14T12:13:16;22.33;50.29
57709;SHT35;42558;52.388;13.390;2023-06-14T12:15:53;21.49;51.23
57709;SHT35;42558;52.388;13.390;2023-06-14T12:18:32;21.46;51.90
57709;SHT35;42558;52.388;13.390;2023-06-14T12:21:04;21.44;51.53
57709;SHT35;42558;52.388;13.390;2023-06-14T12:23:48;21.58;51.47
57709;SHT35;42558;52.388;13.390;2023-06-14T12:26:18;21.73;50.63
57709;SHT35;42558;52.388;13.390;2023-06-14T12:28:49;22.00;50.39
57709;SHT35;42558;52.388;13.390;2023-06-14T12:31:17;22.19;50.71
57709;SHT35;42558;52.388;13.390;2023-06-14T12:33:47;22.38;49.52
57709;SHT35;42558;52.388;13.390;2023-06-14T12:36:17;22.20;48.98
57709;SHT35;42558;52.388;13.390;2023-06-14T12:38:48;22.21;49.32
57709;SHT35;42558;52.388;13.390;2023-06-14T12:41:20;22.43;48.67
57709;SHT35;42558;52.388;13.390;2023-06-14T12:43:50;22.56;48.39
57709;SHT35;42558;52.388;13.390;2023-06-14T12:46:20;22.64;48.44
57709;SHT35;42558;52.388;13.390;2023-06-14T12:48:50;22.69;47.39
57709;SHT35;42558;52.388;13.390;2023-06-14T12:51:20;22.46;47.87
57709;SHT35;42558;52.388;13.390;2023-06-14T12:53:51;22.02;47.92
57709;SHT35;42558;52.388;13.390;2023-06-14T12:56:21;21.97;48.28
57709;SHT35;42558;52.388;13.390;2023-06-14T12:58:51;22.27;47.86
57709;SHT35;42558;52.388;13.390;2023-06-14T13:01:21;22.31;47.71
57709;SHT35;42558;52.388;13.390;2023-06-14T13:03:51;22.66;47.83
57709;SHT35;42558;52.388;13.390;2023-06-14T13:06:22;22.87;46.40
57709;SHT35;42558;52.388;13.390;2023-06-14T13:08:53;22.97;46.11
57709;SHT35;42558;52.388;13.390;2023-06-14T13:11:24;22.85;45.99
57709;SHT35;42558;52.388;13.390;2023-06-14T13:13:54;22.94;45.66
57709;SHT35;42558;52.388;13.390;2023-06-14T13:16:24;22.75;45.47
57709;SHT35;42558;52.388;13.390;2023-06-14T13:18:54;22.92;45.56
57709;SHT35;42558;52.388;13.390;2023-06-14T13:21:24;23.11;45.53
57709;SHT35;42558;52.388;13.390;2023-06-14T13:23:54;23.10;44.84
57709;SHT35;42558;52.388;13.390;2023-06-14T13:26:24;23.35;44.77
57709;SHT35;42558;52.388;13.390;2023-06-14T13:28:54;23.53;44.14
57709;SHT35;42558;52.388;13.390;2023-06-14T13:31:24;23.67;43.85
57709;SHT35;42558;52.388;13.390;2023-06-14T13:33:54;23.70;44.47
57709;SHT35;42558;52.388;13.390;2023-06-14T13:36:24;24.06;44.22
57709;SHT35;42558;52.388;13.390;2023-06-14T13:38:54;24.17;43.25
57709;SHT35;42558;52.388;13.390;2023-06-14T13:41:25;24.05;42.82
57709;SHT35;42558;52.388;13.390;2023-06-14T13:44:00;23.44;43.23
57709;SHT35;42558;52.388;13.390;2023-06-14T13:46:32;23.47;44.07
57709;SHT35;42558;52.388;13.390;2023-06-14T13:49:02;23.69;44.29
57709;SHT35;42558;52.388;13.390;2023-06-14T13:51:33;23.52;43.80
57709;SHT35;42558;52.388;13.390;2023-06-14T13:54:04;23.33;45.01
57709;SHT35;42558;52.388;13.390;2023-06-14T13:56:34;23.36;44.02
57709;SHT35;42558;52.388;13.390;2023-06-14T13:59:04;23.40;43.81
57709;SHT35;42558;52.388;13.390;2023-06-14T14:01:34;23.66;43.85
57709;SHT35;42558;52.388;13.390;2023-06-14T14:04:04;23.50;42.29
57709;SHT35;42558;52.388;13.390;2023-06-14T14:06:34;23.61;41.93
57709;SHT35;42558;52.388;13.390;2023-06-14T14:09:04;23.69;42.41
57709;SHT35;42558;52.388;13.390;2023-06-14T14:11:34;23.65;42.70
57709;SHT35;42558;52.388;13.390;2023-06-14T14:14:04;23.85;42.43
57709;SHT35;42558;52.388;13.390;2023-06-14T14:16:34;23.79;41.61
57709;SHT35;42558;52.388;13.390;2023-06-14T14:19:05;23.50;41.59
57709;SHT35;42558;52.388;13.390;2023-06-14T14:21:34;23.39;42.03
57709;SHT35;42558;52.388;13.390;2023-06-14T14:24:02;23.26;42.25
57709;SHT35;42558;52.388;13.390;2023-06-14T14:26:30;23.24;41.96
57709;SHT35;42558;52.388;13.390;2023-06-14T14:28:59;23.24;41.72
57709;SHT35;42558;52.388;13.390;2023-06-14T14:31:27;23.32;42.07
57709;SHT35;42558;52.388;13.390;2023-06-14T14:33:56;23.29;42.31
57709;SHT35;42558;52.388;13.390;2023-06-14T14:36:24;23.32;42.37
57709;SHT35;42558;52.388;13.390;2023-06-14T14:38:53;23.65;41.97
57709;SHT35;42558;52.388;13.390;2023-06-14T14:41:21;24.04;41.66
57709;SHT35;42558;52.388;13.390;2023-06-14T14:43:49;24.70;42.07
57709;SHT35;42558;52.388;13.390;2023-06-14T14:46:18;25.14;39.92
57709;SHT35;42558;52.388;13.390;2023-06-14T14:48:46;24.84;40.16
57709;SHT35;42558;52.388;13.390;2023-06-14T14:51:15;24.99;39.18
57709;SHT35;42558;52.388;13.390;2023-06-14T14:53:43;24.80;39.95
57709;SHT35;42558;52.388;13.390;2023-06-14T14:56:12;24.60;39.34
57709;SHT35;42558;52.388;13.390;2023-06-14T14:58:40;24.31;40.15
57709;SHT35;42558;52.388;13.390;2023-06-14T15:01:08;24.02;40.09
57709;SHT35;42558;52.388;13.390;2023-06-14T15:03:37;24.17;40.42
57709;SHT35;42558;52.388;13.390;2023-06-14T15:06:26;23.93;40.44
57709;SHT35;42558;52.388;13.390;2023-06-14T15:08:56;23.79;40.00
57709;SHT35;42558;52.388;13.390;2023-06-14T15:11:24;23.49;40.11
57709;SHT35;42558;52.388;13.390;2023-06-14T15:13:53;24.18;41.27
57709;SHT35;42558;52.388;13.390;2023-06-14T15:16:21;25.05;39.15
57709;SHT35;42558;52.388;13.390;2023-06-14T15:18:51;24.94;38.03
57709;SHT35;42558;52.388;13.390;2023-06-14T15:21:20;25.08;37.61
57709;SHT35;42558;52.388;13.390;2023-06-14T15:23:51;24.77;37.85
57709;SHT35;42558;52.388;13.390;2023-06-14T15:26:20;24.58;38.17
57709;SHT35;42558;52.388;13.390;2023-06-14T15:28:48;24.47;37.69
57709;SHT35;42558;52.388;13.390;2023-06-14T15:31:18;24.29;39.80
57709;SHT35;42558;52.388;13.390;2023-06-14T15:33:47;24.29;39.22
57709;SHT35;42558;52.388;13.390;2023-06-14T15:36:17;23.77;38.54
57709;SHT35;42558;52.388;13.390;2023-06-14T15:38:46;23.40;39.89
57709;SHT35;42558;52.388;13.390;2023-06-14T15:41:16;23.39;39.79
57709;SHT35;42558;52.388;13.390;2023-06-14T15:43:46;23.29;40.27
57709;SHT35;42558;52.388;13.390;2023-06-14T15:46:16;23.16;40.80
57709;SHT35;42558;52.388;13.390;2023-06-14T15:48:48;22.94;41.30
57709;SHT35;42558;52.388;13.390;2023-06-14T15:51:18;22.93;41.37
57709;SHT35;42558;52.388;13.390;2023-06-14T15:53:46;22.96;41.23
57709;SHT35;42558;52.388;13.390;2023-06-14T15:56:16;22.94;41.32
57709;SHT35;42558;52.388;13.390;2023-06-14T15:58:46;23.06;41.74